Terminal Aerodrome Forecast
Issued by NWS

Home | Current Version | Previous Version | Graphics & Text | Print | Product List | Glossary On
Versions: 1 2 3 4 5 6 7 8 9 10 11 12 13 14
446
FTUS43 KSGF 081720
TAFJLN
TAF
KJLN 081720Z 0818/0918 32025G37KT P6SM BKN040
     FM090100 32018G29KT P6SM SCT060
     FM090200 32017G27KT P6SM BKN080
     FM090500 32014KT P6SM SCT100=

USA.gov is the U.S. government's official web portal to all federal, state and local government web resources and services.